createdAt,value
2022-10-05T00:01:33.074Z,80.42
2022-10-05T00:03:10.531Z,80.71
2022-10-05T00:04:42.639Z,80.87
2022-10-05T00:06:14.901Z,80.59
2022-10-05T00:07:46.905Z,80.23
2022-10-05T00:09:23.933Z,80.13
2022-10-05T00:10:56.198Z,80.58
2022-10-05T00:12:30.208Z,80.57
2022-10-05T00:14:02.418Z,80.49
2022-10-05T00:15:36.384Z,80.10
2022-10-05T00:17:14.124Z,80.43
2022-10-05T00:18:49.543Z,80.94
2022-10-05T00:20:24.600Z,80.74
2022-10-05T00:22:00.839Z,80.68
2022-10-05T00:23:32.897Z,80.86
2022-10-05T00:25:19.097Z,80.68
2022-10-05T00:26:55.546Z,80.44
2022-10-05T00:28:31.106Z,80.14
2022-10-05T00:30:14.304Z,79.87
2022-10-05T00:31:46.412Z,80.17
2022-10-05T00:33:18.487Z,79.81
2022-10-05T00:34:50.480Z,79.62
2022-10-05T00:36:22.889Z,79.81
2022-10-05T00:37:55.839Z,80.17
2022-10-05T00:39:29.169Z,80.08
2022-10-05T00:41:09.323Z,80.53
2022-10-05T00:43:27.851Z,80.37
2022-10-05T00:45:04.651Z,80.39
2022-10-05T00:46:58.804Z,80.69
2022-10-05T00:48:39.685Z,80.33
2022-10-05T00:50:18.480Z,80.21
2022-10-05T00:52:04.360Z,80.09
2022-10-05T00:54:14.696Z,80.04
2022-10-05T00:56:22.024Z,80.23
2022-10-05T00:59:50.202Z,80.20
2022-10-05T01:01:59.548Z,80.28
2022-10-05T01:04:08.468Z,79.94
2022-10-05T01:06:08.259Z,80.28
2022-10-05T01:07:54.766Z,80.21
2022-10-05T01:09:35.679Z,79.84
2022-10-05T01:11:25.534Z,80.05
2022-10-05T01:13:00.589Z,79.84
2022-10-05T01:14:38.750Z,79.80
2022-10-05T01:16:11.549Z,79.85
2022-10-05T01:17:49.616Z,79.66
2022-10-05T01:19:55.328Z,79.64
2022-10-05T01:21:28.933Z,79.90
2022-10-05T01:23:25.060Z,79.94
2022-10-05T01:25:06.752Z,80.22
2022-10-05T01:27:04.897Z,80.12
2022-10-05T01:28:57.492Z,80.37
2022-10-05T01:30:34.938Z,80.42
2022-10-05T01:32:16.782Z,80.41
2022-10-05T01:34:06.768Z,80.53
2022-10-05T01:35:51.977Z,81.07
2022-10-05T01:37:45.537Z,80.86
2022-10-05T01:39:29.405Z,80.27
2022-10-05T01:41:27.926Z,80.42
2022-10-05T01:43:27.639Z,80.40
2022-10-05T01:45:14.133Z,80.66
2022-10-05T01:47:12.240Z,80.80
2022-10-05T01:49:24.251Z,80.84
2022-10-05T01:51:25.621Z,80.61
2022-10-05T01:53:20.022Z,80.45
2022-10-05T01:55:35.438Z,81.02
2022-10-05T01:57:41.729Z,80.78
2022-10-05T01:59:51.095Z,80.98
2022-10-05T02:03:08.963Z,80.57
2022-10-05T02:05:06.985Z,80.64
2022-10-05T02:06:42.733Z,80.51
2022-10-05T02:08:39.098Z,80.03
2022-10-05T02:10:22.388Z,79.96
2022-10-05T02:11:58.671Z,79.81
2022-10-05T02:13:49.564Z,79.96
2022-10-05T02:15:29.369Z,79.77
2022-10-05T02:17:07.411Z,79.42
2022-10-05T02:18:44.336Z,79.50
2022-10-05T02:20:23.319Z,79.70
2022-10-05T02:22:04.568Z,79.79
2022-10-05T02:23:38.926Z,80.13
2022-10-05T02:25:15.100Z,80.14
2022-10-05T02:26:47.711Z,80.55
2022-10-05T02:28:24.099Z,80.49
2022-10-05T02:30:01.723Z,80.27
2022-10-05T02:31:49.176Z,80.23
2022-10-05T02:33:29.436Z,80.31
2022-10-05T02:35:13.175Z,80.41
2022-10-05T02:36:46.248Z,79.97
2022-10-05T02:38:33.993Z,80.08
2022-10-05T02:40:24.054Z,80.54
2022-10-05T02:42:05.019Z,80.61
2022-10-05T02:43:52.605Z,80.76
2022-10-05T02:45:52.899Z,80.62
2022-10-05T02:47:44.622Z,80.76
2022-10-05T02:49:46.685Z,80.22
2022-10-05T02:51:27.579Z,80.39
2022-10-05T02:52:59.910Z,80.42
2022-10-05T02:55:01.127Z,80.05
2022-10-05T02:56:45.126Z,79.51
2022-10-05T02:58:23.410Z,79.50
2022-10-05T03:00:09.158Z,79.60
2022-10-05T03:01:51.274Z,79.64
2022-10-05T03:04:10.403Z,79.52
2022-10-05T03:07:24.456Z,80.10
2022-10-05T03:09:06.022Z,79.94
2022-10-05T03:11:01.738Z,79.97
2022-10-05T03:12:52.669Z,79.95
2022-10-05T03:14:34.051Z,80.05
2022-10-05T03:16:49.183Z,80.03
2022-10-05T03:18:41.237Z,80.30
2022-10-05T03:20:31.839Z,80.21
2022-10-05T03:22:18.939Z,80.13
2022-10-05T03:24:24.166Z,80.48
2022-10-05T03:26:14.854Z,80.70
2022-10-05T03:27:59.058Z,81.37
2022-10-05T03:29:42.505Z,81.71
2022-10-05T03:31:29.250Z,81.67
2022-10-05T03:33:17.376Z,81.45
2022-10-05T03:34:56.829Z,81.75
2022-10-05T03:36:48.993Z,81.53
2022-10-05T03:38:29.976Z,81.47
2022-10-05T03:40:24.554Z,81.80
2022-10-05T03:42:20.794Z,81.93
2022-10-05T03:44:20.121Z,81.83
2022-10-05T03:46:21.107Z,81.79
2022-10-05T03:48:06.473Z,81.66
2022-10-05T03:49:58.238Z,81.58
2022-10-05T03:51:39.992Z,81.10
2022-10-05T03:53:51.492Z,80.65
2022-10-05T03:55:48.135Z,80.33
2022-10-05T03:57:33.904Z,80.28
2022-10-05T03:59:15.005Z,80.42
2022-10-05T04:00:50.238Z,80.06
2022-10-05T04:02:26.942Z,79.56
2022-10-05T04:04:04.422Z,79.99
2022-10-05T04:05:44.061Z,79.86
2022-10-05T04:07:28.239Z,79.89
2022-10-05T04:09:07.870Z,79.48
2022-10-05T04:10:52.529Z,79.57
2022-10-05T04:12:26.135Z,79.59
2022-10-05T04:14:24.349Z,79.47
2022-10-05T04:17:41.358Z,79.58
2022-10-05T04:19:26.546Z,80.22
2022-10-05T04:21:04.021Z,80.31
2022-10-05T04:22:39.095Z,80.51
2022-10-05T04:24:18.517Z,80.94
2022-10-05T04:25:58.300Z,81.28
2022-10-05T04:27:53.478Z,81.28
2022-10-05T04:29:47.121Z,81.11
2022-10-05T04:31:55.189Z,80.91
2022-10-05T04:33:27.951Z,80.70
2022-10-05T04:35:27.492Z,80.28
2022-10-05T04:37:04.226Z,80.44
2022-10-05T04:39:03.753Z,80.30
2022-10-05T04:40:44.553Z,80.83
2022-10-05T04:42:34.345Z,80.96
2022-10-05T04:44:21.352Z,80.71
2022-10-05T04:46:38.022Z,80.86
2022-10-05T04:48:27.203Z,80.96
2022-10-05T04:51:45.618Z,80.81
2022-10-05T04:53:33.482Z,81.21
2022-10-05T04:55:42.581Z,81.22
2022-10-05T04:57:20.456Z,81.03
2022-10-05T04:59:17.954Z,81.44
2022-10-05T05:01:13.487Z,81.32
2022-10-05T05:02:54.114Z,81.58
2022-10-05T05:05:03.045Z,82.01
2022-10-05T05:06:35.024Z,82.17
2022-10-05T05:08:25.064Z,82.18
2022-10-05T05:10:16.204Z,82.67
2022-10-05T05:12:04.385Z,82.56
2022-10-05T05:14:27.156Z,82.93
2022-10-05T05:16:10.596Z,82.92
2022-10-05T05:18:30.050Z,82.96
2022-10-05T05:20:35.990Z,83.06
2022-10-05T05:22:17.229Z,83.01
2022-10-05T05:23:52.391Z,82.91
2022-10-05T05:25:59.453Z,83.24
2022-10-05T05:27:34.125Z,83.32
2022-10-05T05:29:34.057Z,83.46
2022-10-05T05:31:09.766Z,83.94
2022-10-05T05:32:55.452Z,83.73
2022-10-05T05:34:36.165Z,83.50
2022-10-05T05:36:23.039Z,83.61
2022-10-05T05:38:05.275Z,83.78
2022-10-05T05:39:40.127Z,83.74
2022-10-05T05:41:40.496Z,83.81
2022-10-05T05:43:29.650Z,84.03
2022-10-05T05:45:11.692Z,84.24
2022-10-05T05:47:04.763Z,84.41
2022-10-05T05:48:47.105Z,84.40
2022-10-05T05:50:50.524Z,84.86
2022-10-05T05:52:26.242Z,84.85
2022-10-05T05:54:28.573Z,84.81
2022-10-05T05:56:33.728Z,84.85
2022-10-05T05:58:22.730Z,84.76
2022-10-05T06:00:06.802Z,84.77
2022-10-05T06:01:44.928Z,84.42
2022-10-05T06:03:26.338Z,84.63
2022-10-05T06:05:03.828Z,84.46
2022-10-05T06:06:41.147Z,84.27
2022-10-05T06:08:38.255Z,84.33
2022-10-05T06:10:49.317Z,83.99
2022-10-05T06:12:42.757Z,83.84
2022-10-05T06:14:39.265Z,83.76
2022-10-05T06:16:37.670Z,83.64
2022-10-05T06:18:15.027Z,83.77
2022-10-05T06:19:48.361Z,83.31
2022-10-05T06:21:26.897Z,83.06
2022-10-05T06:23:03.548Z,82.83
2022-10-05T06:26:14.030Z,82.46
2022-10-05T06:28:13.891Z,82.38
2022-10-05T06:29:54.623Z,81.84
2022-10-05T06:31:41.870Z,81.44
2022-10-05T06:33:50.872Z,81.14
2022-10-05T06:35:48.023Z,81.04
2022-10-05T06:37:28.610Z,80.80
2022-10-05T06:39:12.498Z,80.62
2022-10-05T06:40:57.914Z,80.40
2022-10-05T06:42:50.876Z,80.28
2022-10-05T06:44:27.137Z,80.12
2022-10-05T06:46:10.903Z,79.87
2022-10-05T06:47:54.760Z,79.21
2022-10-05T06:49:39.538Z,78.78
2022-10-05T06:51:25.893Z,78.39
2022-10-05T06:53:16.365Z,77.95
2022-10-05T06:55:03.480Z,77.90
2022-10-05T06:56:49.364Z,77.35
2022-10-05T06:58:46.320Z,76.82
2022-10-05T07:00:25.364Z,76.50
2022-10-05T07:02:04.637Z,76.60
2022-10-05T07:03:52.866Z,76.61
2022-10-05T07:05:48.564Z,76.45
2022-10-05T07:07:55.786Z,75.95
2022-10-05T07:09:41.402Z,75.97
2022-10-05T07:12:03.742Z,75.87
2022-10-05T07:13:46.086Z,75.53
2022-10-05T07:15:30.624Z,74.84
2022-10-05T07:17:15.038Z,74.66
2022-10-05T07:18:55.964Z,74.27
2022-10-05T07:20:57.127Z,73.81
2022-10-05T07:22:53.623Z,73.30
2022-10-05T07:24:43.683Z,72.99
2022-10-05T07:26:34.019Z,72.42
2022-10-05T07:30:19.269Z,67.72
2022-10-05T07:32:30.166Z,67.90
2022-10-05T07:34:27.299Z,66.98
2022-10-05T07:36:40.110Z,66.15
2022-10-05T07:38:21.468Z,64.62
2022-10-05T07:40:39.550Z,65.01
2022-10-05T07:42:22.354Z,65.99
2022-10-05T07:44:02.517Z,65.75
2022-10-05T07:45:54.095Z,65.19
2022-10-05T07:47:34.794Z,65.53
2022-10-05T07:49:17.986Z,63.15
2022-10-05T07:51:03.069Z,62.71
2022-10-05T07:52:40.362Z,63.33
2022-10-05T07:54:22.707Z,63.33
2022-10-05T07:55:56.963Z,63.24
2022-10-05T07:57:32.026Z,63.28
2022-10-05T07:59:16.710Z,62.68
2022-10-05T08:01:08.615Z,61.96
2022-10-05T08:02:51.259Z,61.24
2022-10-05T08:04:41.529Z,61.14
2022-10-05T08:06:27.521Z,60.54
2022-10-05T08:08:22.742Z,60.54
2022-10-05T08:10:06.869Z,59.89
2022-10-05T08:12:02.523Z,59.84
2022-10-05T08:13:41.684Z,59.87
2022-10-05T08:15:20.885Z,59.46
2022-10-05T08:16:54.759Z,59.30
2022-10-05T08:18:26.743Z,59.66
2022-10-05T08:20:14.408Z,59.30
2022-10-05T08:22:00.128Z,58.80
2022-10-05T08:23:58.843Z,58.93
2022-10-05T08:26:08.107Z,59.38
2022-10-05T08:29:53.331Z,58.70
2022-10-05T08:31:33.793Z,58.33
2022-10-05T08:33:13.853Z,58.50
2022-10-05T08:34:57.497Z,57.69
2022-10-05T08:36:53.630Z,56.95
2022-10-05T08:38:32.320Z,57.95
2022-10-05T08:40:19.375Z,58.10
2022-10-05T08:41:53.016Z,59.56
2022-10-05T08:43:47.457Z,58.67
2022-10-05T08:45:27.582Z,57.97
2022-10-05T08:47:11.770Z,58.61
2022-10-05T08:49:05.104Z,56.78
2022-10-05T08:51:09.353Z,56.89
2022-10-05T08:52:53.629Z,57.11
2022-10-05T08:54:43.711Z,57.05
2022-10-05T08:58:22.505Z,57.04
2022-10-05T09:00:03.161Z,57.00
2022-10-05T09:01:40.860Z,55.50
2022-10-05T09:03:19.512Z,54.49
2022-10-05T09:04:54.201Z,54.61
2022-10-05T09:06:51.888Z,54.59
2022-10-05T09:08:57.634Z,54.56
2022-10-05T09:10:55.616Z,55.29
2022-10-05T09:12:40.634Z,54.65
2022-10-05T09:14:34.263Z,54.67
2022-10-05T09:16:32.327Z,54.41
2022-10-05T09:18:32.046Z,53.44
2022-10-05T09:20:33.209Z,53.78
2022-10-05T09:22:26.996Z,53.61
2022-10-05T09:24:48.255Z,53.16
2022-10-05T09:27:01.146Z,52.84
2022-10-05T09:29:15.011Z,52.87
2022-10-05T09:32:41.507Z,53.03
2022-10-05T09:34:40.139Z,52.58
2022-10-05T09:36:51.349Z,51.76
2022-10-05T09:39:02.940Z,51.87
2022-10-05T09:41:02.597Z,51.63
2022-10-05T09:42:57.678Z,51.33
2022-10-05T09:44:52.554Z,50.21
2022-10-05T09:46:40.400Z,50.70
2022-10-05T09:48:49.964Z,52.84
2022-10-05T09:50:43.784Z,53.28
2022-10-05T09:52:40.555Z,51.04
2022-10-05T09:54:40.642Z,52.66
2022-10-05T09:58:23.472Z,52.58
2022-10-05T10:00:50.100Z,52.98
2022-10-05T10:02:48.837Z,52.27
2022-10-05T10:04:44.869Z,54.00
2022-10-05T10:06:43.239Z,53.31
2022-10-05T10:08:21.684Z,53.27
2022-10-05T10:10:31.467Z,54.02
2022-10-05T10:12:03.539Z,53.09
2022-10-05T10:14:01.303Z,50.03
2022-10-05T10:15:41.175Z,51.93
2022-10-05T10:17:36.488Z,52.23
2022-10-05T10:19:13.605Z,51.76
2022-10-05T10:21:24.803Z,51.99
2022-10-05T10:23:41.160Z,52.23
2022-10-05T10:25:19.479Z,53.62
2022-10-05T10:27:10.315Z,53.90
2022-10-05T10:28:57.678Z,52.87
2022-10-05T10:31:00.401Z,51.68
2022-10-05T10:32:51.617Z,53.32
2022-10-05T10:36:34.177Z,52.01
2022-10-05T10:38:16.535Z,49.84
2022-10-05T10:40:06.866Z,50.58
2022-10-05T10:42:16.557Z,51.01
2022-10-05T10:44:13.498Z,50.04
2022-10-05T10:45:48.886Z,50.26
2022-10-05T10:47:39.808Z,49.97
2022-10-05T10:49:39.969Z,49.89
2022-10-05T10:51:20.095Z,49.52
2022-10-05T10:53:23.343Z,50.89
2022-10-05T10:55:10.450Z,50.06
2022-10-05T10:56:59.310Z,50.60
2022-10-05T10:58:52.335Z,50.96
2022-10-05T11:00:48.257Z,52.04
2022-10-05T11:02:32.021Z,48.00
2022-10-05T11:04:22.874Z,49.99
2022-10-05T11:06:00.765Z,50.18
2022-10-05T11:07:41.793Z,47.70
2022-10-05T11:09:23.508Z,47.77
2022-10-05T11:11:07.646Z,47.82
2022-10-05T11:13:15.182Z,48.21
2022-10-05T11:15:24.453Z,49.76
2022-10-05T11:17:21.003Z,50.23
2022-10-05T11:19:39.983Z,51.79
2022-10-05T11:21:37.076Z,51.50
2022-10-05T11:23:21.039Z,48.31
2022-10-05T11:25:14.672Z,48.06
2022-10-05T11:27:08.680Z,49.05
2022-10-05T11:29:06.785Z,50.26
2022-10-05T11:30:59.394Z,50.76
2022-10-05T11:33:01.584Z,48.81
2022-10-05T11:35:01.447Z,49.02
2022-10-05T11:36:33.472Z,48.60
2022-10-05T11:38:15.497Z,46.57
2022-10-05T11:40:17.155Z,45.71
2022-10-05T11:42:12.129Z,46.85
2022-10-05T11:43:51.392Z,46.99
2022-10-05T11:45:26.790Z,47.91
2022-10-05T11:47:20.470Z,46.77
2022-10-05T11:49:17.330Z,46.02
2022-10-05T11:51:12.695Z,46.74
2022-10-05T11:52:56.012Z,49.58
2022-10-05T11:55:10.279Z,49.02
2022-10-05T11:56:57.229Z,49.45
2022-10-05T11:59:00.896Z,49.71
2022-10-05T12:00:47.272Z,49.03
2022-10-05T12:02:42.930Z,48.19
2022-10-05T12:04:38.155Z,48.30
2022-10-05T12:06:17.503Z,46.77
2022-10-05T12:08:18.990Z,47.82
2022-10-05T12:10:17.507Z,47.03
2022-10-05T12:12:04.442Z,47.24
2022-10-05T12:13:54.156Z,47.64
2022-10-05T12:15:38.324Z,47.12
2022-10-05T12:17:10.661Z,44.70
2022-10-05T12:18:49.471Z,44.53
2022-10-05T12:20:29.495Z,44.93
2022-10-05T12:22:38.605Z,44.59
2022-10-05T12:24:16.020Z,46.42
2022-10-05T12:25:59.870Z,44.00
2022-10-05T12:27:38.971Z,44.60
2022-10-05T12:29:27.553Z,43.65
2022-10-05T12:31:21.321Z,42.68
2022-10-05T12:32:58.120Z,43.66
2022-10-05T12:34:46.212Z,45.08
2022-10-05T12:36:59.643Z,43.72
2022-10-05T12:38:35.943Z,44.29
2022-10-05T12:40:18.540Z,43.94
2022-10-05T12:42:03.596Z,43.16
2022-10-05T12:43:54.932Z,44.60
2022-10-05T12:45:46.441Z,43.19
2022-10-05T12:47:51.522Z,43.73
2022-10-05T12:49:56.187Z,43.44
2022-10-05T12:51:55.968Z,44.47
2022-10-05T12:53:52.536Z,43.71
2022-10-05T12:55:52.094Z,44.97
2022-10-05T12:57:27.013Z,45.02
2022-10-05T12:59:20.353Z,43.88
2022-10-05T13:01:27.995Z,43.56
2022-10-05T13:03:17.432Z,44.44
2022-10-05T13:05:11.391Z,42.56
2022-10-05T13:07:20.525Z,44.39
2022-10-05T13:09:01.554Z,44.20
2022-10-05T13:12:26.285Z,43.95
2022-10-05T13:14:07.763Z,45.26
2022-10-05T13:15:55.447Z,43.71
2022-10-05T13:17:53.327Z,43.96
2022-10-05T13:19:41.348Z,42.54
2022-10-05T13:21:21.077Z,42.60
2022-10-05T13:23:08.326Z,45.09
2022-10-05T13:25:02.170Z,42.76
2022-10-05T13:26:39.974Z,44.00
2022-10-05T13:28:26.900Z,43.50
2022-10-05T13:30:08.935Z,43.20
2022-10-05T13:31:48.131Z,42.45
2022-10-05T13:56:06.151Z,41.07
2022-10-05T13:58:17.924Z,41.37
2022-10-05T13:59:58.147Z,42.21
2022-10-05T14:01:35.148Z,42.88
2022-10-05T14:03:24.779Z,44.70
2022-10-05T14:05:17.867Z,42.64
2022-10-05T14:06:50.185Z,44.04
2022-10-05T14:08:27.851Z,44.81
2022-10-05T14:10:01.367Z,44.23
2022-10-05T14:11:35.838Z,43.34
2022-10-05T14:13:32.866Z,44.92
2022-10-05T14:15:23.894Z,44.46
2022-10-05T14:17:06.035Z,43.81
2022-10-05T14:18:39.111Z,43.39
2022-10-05T14:20:31.783Z,42.65
2022-10-05T14:22:11.918Z,42.12
2022-10-05T14:23:44.402Z,41.12
2022-10-05T14:26:53.282Z,42.66
2022-10-05T14:28:30.095Z,42.33
2022-10-05T14:30:26.122Z,42.23
2022-10-05T14:32:14.719Z,43.92
2022-10-05T14:33:47.072Z,43.65
2022-10-05T14:35:24.582Z,42.54
2022-10-05T14:37:20.428Z,43.21
2022-10-05T14:38:58.169Z,44.63
2022-10-05T14:40:35.838Z,44.96
2022-10-05T14:42:25.468Z,45.05
2022-10-05T14:44:02.486Z,44.42
2022-10-05T14:45:36.015Z,44.65
2022-10-05T14:47:30.088Z,43.95
2022-10-05T14:49:17.465Z,43.04
2022-10-05T14:50:56.322Z,44.41
2022-10-05T14:52:32.972Z,44.83
2022-10-05T14:56:18.965Z,45.25
2022-10-05T14:58:17.015Z,45.32
2022-10-05T15:00:13.630Z,45.86
2022-10-05T15:01:55.659Z,46.86
2022-10-05T15:03:38.640Z,47.83
2022-10-05T15:05:25.036Z,47.58
2022-10-05T15:07:21.199Z,48.50
2022-10-05T15:09:09.132Z,49.06
2022-10-05T15:11:04.052Z,49.41
2022-10-05T15:12:40.409Z,50.01
2022-10-05T15:14:37.907Z,51.07
2022-10-05T15:16:31.743Z,51.72
2022-10-05T15:18:25.415Z,51.67
2022-10-05T15:20:28.936Z,52.65
2022-10-05T15:22:27.589Z,53.62
2022-10-05T15:24:09.757Z,54.08
2022-10-05T15:26:18.869Z,54.81
2022-10-05T15:28:12.982Z,55.39
2022-10-05T15:30:00.245Z,55.02
2022-10-05T15:31:48.344Z,54.59
2022-10-05T15:33:35.982Z,54.77
2022-10-05T15:35:25.994Z,53.86
2022-10-05T15:37:17.219Z,53.64
2022-10-05T15:39:33.244Z,55.15
2022-10-05T15:41:15.566Z,55.97
2022-10-05T15:42:48.376Z,57.03
2022-10-05T15:44:40.747Z,58.14
2022-10-05T15:46:29.229Z,57.92
2022-10-05T15:48:08.850Z,58.69
2022-10-05T15:49:57.699Z,57.36
2022-10-05T15:51:51.164Z,58.11
2022-10-05T15:53:34.920Z,59.61
2022-10-05T15:55:22.652Z,60.84
2022-10-05T15:57:02.767Z,60.79
2022-10-05T16:00:16.936Z,61.37
2022-10-05T16:02:01.325Z,61.56
2022-10-05T16:03:52.242Z,61.66
2022-10-05T16:06:00.025Z,61.12
2022-10-05T16:08:04.417Z,60.07
2022-10-05T16:10:00.673Z,59.56
2022-10-05T16:11:41.871Z,59.30
2022-10-05T16:13:34.476Z,60.96
2022-10-05T16:15:19.148Z,62.66
2022-10-05T16:17:07.261Z,63.37
2022-10-05T16:19:16.984Z,63.97
2022-10-05T16:20:51.075Z,65.00
2022-10-05T16:22:34.065Z,65.24
2022-10-05T16:24:21.075Z,66.30
2022-10-05T16:26:13.498Z,66.69
2022-10-05T16:27:47.476Z,67.11
2022-10-05T16:29:37.840Z,67.11
2022-10-05T16:31:18.287Z,66.90
2022-10-05T16:33:05.910Z,67.32
2022-10-05T16:35:01.023Z,66.89
2022-10-05T16:37:17.459Z,67.35
2022-10-05T16:39:18.419Z,67.06
2022-10-05T16:41:06.039Z,66.98
2022-10-05T16:42:46.792Z,66.70
2022-10-05T16:44:35.057Z,67.03
2022-10-05T16:46:33.299Z,66.64
2022-10-05T16:48:20.257Z,67.25
2022-10-05T16:49:58.097Z,66.97
2022-10-05T16:52:02.288Z,67.62
2022-10-05T16:54:15.809Z,67.67
2022-10-05T16:55:50.274Z,67.49
2022-10-05T16:57:27.076Z,67.84
2022-10-05T16:59:20.297Z,68.09
2022-10-05T17:01:00.763Z,68.34
2022-10-05T17:02:39.678Z,68.81
2022-10-05T17:04:48.391Z,68.95
2022-10-05T17:06:46.189Z,69.29
2022-10-05T17:08:49.718Z,69.63
2022-10-05T17:10:51.257Z,69.77
2022-10-05T17:12:39.645Z,70.01
2022-10-05T17:14:16.318Z,70.03
2022-10-05T17:16:28.275Z,70.50
2022-10-05T17:18:10.191Z,70.84
2022-10-05T17:19:53.546Z,71.39
2022-10-05T17:21:52.214Z,71.43
2022-10-05T17:23:30.565Z,71.66
2022-10-05T17:25:18.586Z,71.41
2022-10-05T17:27:13.258Z,71.63
2022-10-05T17:28:51.633Z,71.75
2022-10-05T17:30:26.733Z,71.59
2022-10-05T17:32:33.758Z,71.89
2022-10-05T17:34:18.206Z,71.88
2022-10-05T17:36:08.805Z,71.76
2022-10-05T17:37:44.444Z,72.22
2022-10-05T17:39:19.262Z,72.15
2022-10-05T17:41:00.402Z,72.13
2022-10-05T17:42:34.732Z,72.28
2022-10-05T17:44:21.813Z,72.42
2022-10-05T17:45:55.092Z,72.55
2022-10-05T17:47:58.694Z,72.44
2022-10-05T17:50:14.778Z,72.69
2022-10-05T17:52:05.366Z,73.23
2022-10-05T17:54:05.658Z,73.52
2022-10-05T17:55:47.614Z,73.49
2022-10-05T17:57:25.619Z,73.93
2022-10-05T17:59:07.322Z,74.02
2022-10-05T18:00:42.305Z,74.19
2022-10-05T18:02:20.401Z,74.51
2022-10-05T18:03:53.029Z,74.57
2022-10-05T18:05:28.251Z,74.55
2022-10-05T18:07:03.029Z,74.46
2022-10-05T18:08:38.490Z,74.63
2022-10-05T18:10:12.225Z,74.62
2022-10-05T18:11:45.641Z,74.68
2022-10-05T18:13:21.491Z,74.65
2022-10-05T18:14:59.251Z,74.58
2022-10-05T18:17:11.449Z,74.63
2022-10-05T18:18:43.431Z,74.53
2022-10-05T18:20:25.867Z,74.32
2022-10-05T18:22:16.024Z,74.11
2022-10-05T18:24:02.351Z,74.30
2022-10-05T18:27:43.765Z,74.47
2022-10-05T18:29:54.847Z,74.76
2022-10-05T18:31:39.438Z,75.15
2022-10-05T18:33:39.333Z,74.93
2022-10-05T18:35:46.251Z,75.35
2022-10-05T18:37:42.129Z,75.56
2022-10-05T18:39:28.175Z,75.56
2022-10-05T18:41:19.952Z,75.75
2022-10-05T18:43:00.811Z,76.32
2022-10-05T18:44:39.774Z,76.46
2022-10-05T18:46:27.009Z,76.51
2022-10-05T18:48:29.879Z,76.34
2022-10-05T18:50:17.275Z,76.35
2022-10-05T18:52:10.838Z,76.41
2022-10-05T18:54:02.381Z,76.51
2022-10-05T18:55:42.737Z,76.53
2022-10-05T18:57:27.116Z,76.31
2022-10-05T18:59:44.023Z,76.33
2022-10-05T19:01:31.218Z,76.07
2022-10-05T19:03:27.978Z,75.67
2022-10-05T19:05:05.658Z,75.68
2022-10-05T19:06:52.381Z,75.28
2022-10-05T19:08:50.021Z,75.40
2022-10-05T19:10:33.466Z,75.34
2022-10-05T19:12:38.048Z,75.41
2022-10-05T19:14:37.011Z,75.07
2022-10-05T19:16:18.076Z,74.86
2022-10-05T19:17:52.983Z,74.58
2022-10-05T19:19:59.031Z,74.20
2022-10-05T19:21:39.808Z,74.47
2022-10-05T19:23:41.975Z,74.46
2022-10-05T19:27:04.485Z,74.54
2022-10-05T19:28:49.213Z,74.03
2022-10-05T19:30:27.517Z,74.38
2022-10-05T19:32:18.915Z,74.95
2022-10-05T19:34:29.957Z,74.96
2022-10-05T19:36:11.013Z,74.99
2022-10-05T19:37:49.108Z,75.25
2022-10-05T19:39:42.866Z,74.70
2022-10-05T19:41:17.680Z,74.81
2022-10-05T19:43:06.777Z,74.32
2022-10-05T19:44:48.146Z,74.99
2022-10-05T19:46:50.857Z,75.22
2022-10-05T19:48:32.785Z,75.49
2022-10-05T19:50:21.610Z,75.51
2022-10-05T19:51:58.112Z,75.52
2022-10-05T19:53:31.295Z,75.65
2022-10-05T19:55:17.639Z,75.57
2022-10-05T19:56:53.050Z,75.82
2022-10-05T19:58:30.036Z,75.82
2022-10-05T20:00:02.431Z,76.17
2022-10-05T20:01:35.763Z,76.47
2022-10-05T20:03:15.426Z,76.53
2022-10-05T20:04:55.250Z,76.48
2022-10-05T20:06:30.664Z,76.44
2022-10-05T20:08:05.157Z,76.09
2022-10-05T20:09:52.324Z,76.19
2022-10-05T20:11:27.509Z,76.40
2022-10-05T20:13:01.720Z,76.52
2022-10-05T20:14:59.113Z,76.42
2022-10-05T20:16:51.161Z,76.67
2022-10-05T20:19:03.918Z,76.68
2022-10-05T20:20:39.688Z,76.87
2022-10-05T20:22:23.958Z,76.88
2022-10-05T20:24:25.780Z,77.29
2022-10-05T20:26:16.878Z,77.69
2022-10-05T20:27:55.696Z,77.68
2022-10-05T20:29:37.854Z,78.12
2022-10-05T20:31:09.983Z,78.05
2022-10-05T20:32:42.426Z,77.82
2022-10-05T20:34:14.832Z,78.15
2022-10-05T20:35:46.913Z,78.12
2022-10-05T20:37:19.897Z,78.08
2022-10-05T20:38:51.922Z,78.05
2022-10-05T20:40:23.911Z,77.65
2022-10-05T20:41:55.907Z,77.77
2022-10-05T20:43:28.521Z,77.74
2022-10-05T20:45:00.599Z,77.63
2022-10-05T20:46:32.621Z,77.65
2022-10-05T20:48:04.915Z,77.51
2022-10-05T20:49:38.580Z,77.69
2022-10-05T20:51:10.575Z,77.46
2022-10-05T20:52:42.569Z,77.41
2022-10-05T20:54:18.455Z,77.32
2022-10-05T20:55:50.582Z,77.69
2022-10-05T20:57:24.315Z,77.71
2022-10-05T20:58:56.553Z,77.70
2022-10-05T21:00:51.574Z,78.03
2022-10-05T21:02:23.692Z,78.21
2022-10-05T21:03:55.764Z,78.38
2022-10-05T21:05:27.876Z,78.00
2022-10-05T21:07:05.841Z,78.08
2022-10-05T21:08:38.545Z,78.28
2022-10-05T21:10:11.414Z,78.11
2022-10-05T21:11:44.332Z,78.18
2022-10-05T21:13:16.310Z,77.95
2022-10-05T21:14:48.340Z,78.43
2022-10-05T21:16:21.094Z,78.47
2022-10-05T21:17:53.294Z,78.82
2022-10-05T21:19:25.373Z,78.83
2022-10-05T21:21:01.991Z,79.08
2022-10-05T21:22:36.634Z,78.99
2022-10-05T21:24:10.039Z,78.91
2022-10-05T21:25:41.893Z,78.89
2022-10-05T21:27:13.918Z,78.93
2022-10-05T21:28:45.966Z,78.95
2022-10-05T21:30:18.196Z,79.00
2022-10-05T21:31:50.350Z,78.88
2022-10-05T21:33:22.618Z,78.94
2022-10-05T21:34:54.658Z,78.96
2022-10-05T21:36:26.653Z,78.67
2022-10-05T21:38:01.770Z,78.50
2022-10-05T21:39:34.958Z,78.49
2022-10-05T21:41:08.008Z,78.54
2022-10-05T21:42:40.094Z,78.44
2022-10-05T21:44:12.085Z,77.95
2022-10-05T21:45:44.740Z,78.07
2022-10-05T21:47:16.817Z,78.26
2022-10-05T21:48:50.170Z,78.27
2022-10-05T21:50:22.270Z,78.65
2022-10-05T21:51:54.560Z,78.85
2022-10-05T21:53:29.577Z,78.90
2022-10-05T21:55:02.751Z,78.87
2022-10-05T21:56:36.808Z,78.91
2022-10-05T21:58:08.915Z,78.66
2022-10-05T21:59:40.991Z,78.84
2022-10-05T22:01:13.149Z,78.71
2022-10-05T22:02:45.560Z,78.85
2022-10-05T22:04:17.629Z,79.10
2022-10-05T22:05:49.612Z,79.07
2022-10-05T22:07:21.573Z,79.52
2022-10-05T22:08:53.561Z,79.65
2022-10-05T22:10:25.752Z,79.69
2022-10-05T22:11:57.769Z,79.50
2022-10-05T22:13:40.686Z,79.42
2022-10-05T22:15:12.960Z,79.81
2022-10-05T22:16:45.185Z,79.79
2022-10-05T22:18:18.608Z,79.94
2022-10-05T22:19:50.898Z,80.09
2022-10-05T22:21:26.018Z,79.98
2022-10-05T22:22:58.144Z,79.96
2022-10-05T22:24:30.269Z,79.65
2022-10-05T22:26:03.047Z,79.67
2022-10-05T22:27:35.998Z,79.59
2022-10-05T22:29:08.105Z,79.29
2022-10-05T22:30:40.252Z,79.36
2022-10-05T22:32:12.277Z,79.00
2022-10-05T22:33:44.481Z,78.53
2022-10-05T22:35:16.487Z,78.66
2022-10-05T22:36:48.942Z,78.81
2022-10-05T22:38:20.973Z,78.66
2022-10-05T22:39:55.551Z,78.84
2022-10-05T22:41:27.564Z,78.76
2022-10-05T22:42:59.564Z,78.97
2022-10-05T22:44:32.338Z,78.98
2022-10-05T22:46:11.759Z,78.90
2022-10-05T22:47:43.890Z,78.68
2022-10-05T22:49:16.225Z,78.55
2022-10-05T22:50:49.174Z,78.50
2022-10-05T22:53:54.140Z,78.39
2022-10-05T22:55:26.219Z,78.69
2022-10-05T22:56:58.359Z,78.76
2022-10-05T22:58:30.748Z,78.01
2022-10-05T23:00:03.054Z,78.16
2022-10-05T23:01:35.150Z,78.32
2022-10-05T23:03:07.378Z,78.33
2022-10-05T23:04:39.326Z,78.12
2022-10-05T23:06:13.796Z,78.22
2022-10-05T23:07:49.236Z,78.31
2022-10-05T23:09:21.351Z,78.63
2022-10-05T23:10:53.291Z,78.57
2022-10-05T23:12:25.268Z,78.55
2022-10-05T23:13:57.798Z,78.81
2022-10-05T23:15:29.754Z,79.01
2022-10-05T23:17:02.023Z,78.83
2022-10-05T23:18:34.300Z,78.59
2022-10-05T23:20:08.074Z,78.47
2022-10-05T23:21:40.254Z,78.88
2022-10-05T23:23:12.264Z,78.98
2022-10-05T23:24:44.220Z,79.26
2022-10-05T23:26:17.861Z,79.31
2022-10-05T23:27:49.909Z,79.13
2022-10-05T23:29:21.956Z,79.12
2022-10-05T23:30:59.276Z,79.06
2022-10-05T23:32:31.294Z,79.17
2022-10-05T23:34:03.273Z,79.46
2022-10-05T23:35:36.452Z,79.23
2022-10-05T23:37:08.551Z,79.54
2022-10-05T23:38:40.569Z,79.68
2022-10-05T23:40:14.422Z,79.78
2022-10-05T23:41:46.486Z,79.80